Time;durP1;ratioP1;P1;durP2;ratioP2;P2;SDS_P1;SDS_P2;PMS_P1;PMS_P2;Temp;Humidity;BMP_temperature;BMP_pressure;BME280_temperature;BME280_humidity;BME280_pressure;Samples;Min_cycle;Max_cycle;Signal;HPM_P1;HPM_P2
2021/01/31 00:01:52;;;;;;;10.00;8.23;;;-1.20;99.90;;;;;;5087629;28;20235;-71
2021/01/31 00:04:19;;;;;;;14.20;11.17;;;-1.20;99.90;;;;;;5088298;28;20214;-71
2021/01/31 00:06:45;;;;;;;12.27;9.70;;;-1.30;99.90;;;;;;5088203;28;20205;-71
2021/01/31 00:09:11;;;;;;;11.90;9.97;;;-1.30;99.90;;;;;;5088250;28;20208;-71
2021/01/31 00:11:38;;;;;;;11.03;8.83;;;-1.30;99.90;;;;;;5087799;28;20488;-71
2021/01/31 00:14:04;;;;;;;11.00;9.03;;;-1.30;99.90;;;;;;5088140;28;20201;-71
2021/01/31 00:16:30;;;;;;;9.57;8.20;;;-1.20;99.90;;;;;;5087932;28;20213;-71
2021/01/31 00:18:56;;;;;;;9.53;8.00;;;-1.20;99.90;;;;;;5087732;28;20227;-72
2021/01/31 00:21:23;;;;;;;8.73;7.87;;;-1.20;99.90;;;;;;5088138;28;20422;-71
2021/01/31 00:23:49;;;;;;;7.93;7.13;;;-1.10;99.90;;;;;;5087959;28;20204;-72
2021/01/31 00:26:16;;;;;;;8.67;6.90;;;-1.10;99.90;;;;;;5087881;28;20208;-72
2021/01/31 00:28:43;;;;;;;8.03;7.23;;;-1.10;99.90;;;;;;5087934;28;20211;-72
2021/01/31 00:31:09;;;;;;;9.70;8.70;;;-1.10;99.90;;;;;;5087519;28;20231;-72
2021/01/31 00:33:35;;;;;;;11.03;9.27;;;-1.20;99.90;;;;;;5087538;28;20211;-72
2021/01/31 00:36:01;;;;;;;9.63;8.10;;;-1.20;99.90;;;;;;5087824;28;20206;-72
2021/01/31 00:38:28;;;;;;;8.17;7.37;;;-1.30;99.90;;;;;;5087319;28;20692;-71
2021/01/31 00:40:55;;;;;;;7.47;6.77;;;-1.30;99.90;;;;;;5087588;28;20217;-71
2021/01/31 00:43:22;;;;;;;9.47;7.30;;;-1.40;99.90;;;;;;5087418;28;20218;-71
2021/01/31 00:45:49;;;;;;;8.50;7.37;;;-1.50;99.90;;;;;;5087564;28;20217;-71
2021/01/31 00:48:16;;;;;;;9.80;8.03;;;-1.50;99.90;;;;;;5087534;28;20600;-71
2021/01/31 00:50:42;;;;;;;10.30;8.30;;;-1.50;99.90;;;;;;5087377;28;20229;-71
2021/01/31 00:53:09;;;;;;;11.07;8.53;;;-1.50;99.90;;;;;;5087464;28;20209;-71
2021/01/31 00:55:36;;;;;;;11.43;8.20;;;-1.60;99.90;;;;;;5087430;28;20209;-71
2021/01/31 00:58:02;;;;;;;12.53;7.70;;;-1.60;99.90;;;;;;5086757;28;20238;-71
2021/01/31 01:00:30;;;;;;;14.50;9.57;;;-1.60;99.90;;;;;;5087459;28;20577;-71
2021/01/31 01:02:57;;;;;;;12.07;8.60;;;-1.60;99.90;;;;;;5087006;28;20204;-71
2021/01/31 01:05:26;;;;;;;18.73;10.60;;;-1.60;99.90;;;;;;5087194;28;20213;-72
2021/01/31 01:07:52;;;;;;;14.20;8.97;;;-1.80;99.90;;;;;;5086854;28;20267;-71
2021/01/31 01:10:21;;;;;;;8.40;7.10;;;-1.90;99.90;;;;;;5086786;28;20573;-71
2021/01/31 01:12:48;;;;;;;10.43;6.80;;;-1.80;99.90;;;;;;5086189;28;20260;-71
2021/01/31 01:15:17;;;;;;;10.77;7.47;;;-1.90;99.90;;;;;;5086795;28;20595;-72
2021/01/31 01:17:44;;;;;;;7.93;6.57;;;-1.90;99.90;;;;;;5087098;28;20217;-72
2021/01/31 01:20:12;;;;;;;6.47;5.87;;;-2.00;99.90;;;;;;5086288;28;20697;-71
2021/01/31 01:22:39;;;;;;;7.20;6.27;;;-2.00;99.90;;;;;;5086693;28;20220;-72
2021/01/31 01:25:06;;;;;;;7.13;5.90;;;-1.90;99.90;;;;;;5086787;28;20225;-71
2021/01/31 01:27:32;;;;;;;6.50;5.77;;;-1.90;99.90;;;;;;5086252;28;20221;-71
2021/01/31 01:30:00;;;;;;;6.83;5.97;;;-1.90;99.90;;;;;;5086577;28;20207;-72
2021/01/31 01:32:27;;;;;;;6.70;5.93;;;-1.80;99.90;;;;;;5086497;28;20234;-71
2021/01/31 01:34:53;;;;;;;8.17;6.40;;;-1.80;99.90;;;;;;5086562;28;20552;-71
2021/01/31 01:37:20;;;;;;;9.00;6.47;;;-1.90;99.90;;;;;;5086022;28;20674;-71
2021/01/31 01:39:47;;;;;;;9.83;8.13;;;-1.80;99.90;;;;;;5086486;28;20284;-71
2021/01/31 01:42:14;;;;;;;9.17;6.83;;;-1.90;99.90;;;;;;5086044;28;20220;-71
2021/01/31 01:44:40;;;;;;;7.77;6.47;;;-1.90;99.90;;;;;;5086301;28;20600;-71
2021/01/31 01:47:14;;;;;;;7.40;5.87;;;-1.90;99.90;;;;;;5086020;28;20273;-71
2021/01/31 01:49:42;;;;;;;5.53;5.03;;;-2.00;99.90;;;;;;5085946;28;20606;-72
2021/01/31 01:52:12;;;;;;;22.37;13.63;;;-1.90;99.90;;;;;;5086154;28;20241;-72
2021/01/31 01:54:43;;;;;;;11.00;7.53;;;-2.00;99.90;;;;;;5086250;28;20297;-72
2021/01/31 01:57:11;;;;;;;5.67;5.17;;;-2.00;99.90;;;;;;5085863;28;20203;-71
2021/01/31 01:59:39;;;;;;;5.57;5.07;;;-2.00;99.90;;;;;;5085529;28;20249;-72
2021/01/31 02:02:12;;;;;;;5.80;5.30;;;-2.00;99.90;;;;;;5085765;28;20210;-72
2021/01/31 02:04:39;;;;;;;7.20;5.43;;;-2.00;99.90;;;;;;5085956;28;20247;-72
2021/01/31 02:07:05;;;;;;;6.70;5.97;;;-2.10;99.90;;;;;;5085491;28;20271;-71
2021/01/31 02:09:32;;;;;;;5.63;5.10;;;-2.10;99.90;;;;;;5085619;28;20213;-71
2021/01/31 02:12:01;;;;;;;5.40;4.83;;;-2.10;99.90;;;;;;5085647;28;20293;-71
2021/01/31 02:14:29;;;;;;;5.67;5.17;;;-2.10;99.90;;;;;;5096874;28;20211;-71
2021/01/31 02:16:57;;;;;;;5.27;4.83;;;-2.10;99.90;;;;;;5088529;28;20206;-71
2021/01/31 02:19:59;;;;;;;5.87;5.27;;;-2.10;99.90;;;;;;5088598;28;20204;-71
2021/01/31 02:22:53;;;;;;;6.07;5.00;;;-2.20;99.90;;;;;;5062063;28;20211;-71
2021/01/31 02:25:52;;;;;;;6.63;5.43;;;-2.20;99.90;;;;;;5088749;28;20188;-71
2021/01/31 02:28:42;;;;;;;8.17;6.10;;;-2.20;99.90;;;;;;5070794;28;20567;-71
2021/01/31 02:31:27;;;;;;;7.77;6.20;;;-2.20;99.90;;;;;;5088233;28;20222;-71
2021/01/31 02:33:58;;;;;;;5.97;5.37;;;-2.20;99.90;;;;;;5088486;28;20196;-71
2021/01/31 02:36:33;;;;;;;6.10;5.50;;;-2.20;99.90;;;;;;5088350;28;21062;-72
2021/01/31 02:39:08;;;;;;;5.60;5.07;;;-2.10;99.90;;;;;;5088701;28;20199;-71
2021/01/31 02:41:39;;;;;;;6.77;5.30;;;-2.10;99.90;;;;;;5088555;28;20198;-72
2021/01/31 02:44:10;;;;;;;6.40;5.73;;;-2.20;99.90;;;;;;5088175;28;20192;-72
2021/01/31 02:46:41;;;;;;;5.63;5.07;;;-2.30;99.90;;;;;;5088488;28;20253;-71
2021/01/31 02:49:14;;;;;;;8.80;5.70;;;-2.30;99.90;;;;;;5088246;28;20603;-71
2021/01/31 02:51:47;;;;;;;6.37;5.33;;;-2.30;99.90;;;;;;5088252;28;20237;-71
2021/01/31 02:54:18;;;;;;;5.77;5.13;;;-2.40;99.90;;;;;;5087942;28;20283;-71
2021/01/31 02:56:51;;;;;;;6.37;5.77;;;-2.50;99.90;;;;;;5088368;28;20204;-71
2021/01/31 02:59:29;;;;;;;6.80;5.43;;;-2.50;99.90;;;;;;5087778;28;20697;-71
2021/01/31 03:02:01;;;;;;;6.57;5.40;;;-2.50;99.90;;;;;;5088450;28;20209;-71
2021/01/31 03:04:33;;;;;;;6.63;5.50;;;-2.60;99.90;;;;;;5088414;28;20197;-71
2021/01/31 03:07:08;;;;;;;6.43;5.03;;;-2.50;99.90;;;;;;5088313;28;20194;-71
2021/01/31 03:09:41;;;;;;;6.37;5.27;;;-2.50;99.90;;;;;;5088157;28;20191;-71
2021/01/31 03:12:11;;;;;;;7.27;5.80;;;-2.50;99.90;;;;;;5088093;28;20598;-71
2021/01/31 03:14:41;;;;;;;6.47;5.80;;;-2.50;99.90;;;;;;5088189;28;20203;-71
2021/01/31 03:17:13;;;;;;;9.50;7.97;;;-2.50;99.90;;;;;;5087827;28;20672;-71
2021/01/31 03:19:45;;;;;;;13.53;10.47;;;-2.50;99.90;;;;;;5088144;28;20193;-71
2021/01/31 03:22:15;;;;;;;9.17;7.27;;;-2.50;99.90;;;;;;5087877;28;20191;-71
2021/01/31 03:24:45;;;;;;;8.13;7.33;;;-2.60;99.90;;;;;;5087768;28;20241;-71
2021/01/31 03:27:15;;;;;;;7.67;6.97;;;-2.60;99.90;;;;;;5088043;28;20200;-71
2021/01/31 03:29:41;;;;;;;7.10;6.10;;;-2.60;99.90;;;;;;5088047;28;20208;-71
2021/01/31 03:32:11;;;;;;;5.57;5.07;;;-2.60;99.90;;;;;;5087646;28;20224;-71
2021/01/31 03:34:44;;;;;;;7.07;5.33;;;-2.60;99.90;;;;;;5087829;28;20359;-73
2021/01/31 03:37:13;;;;;;;6.80;6.10;;;-2.50;99.90;;;;;;5091672;28;20537;-71
2021/01/31 03:39:44;;;;;;;6.60;5.93;;;-2.50;99.90;;;;;;5091471;28;20203;-71
2021/01/31 03:42:10;;;;;;;7.03;5.97;;;-2.50;99.90;;;;;;5091285;28;20967;-71
2021/01/31 03:44:42;;;;;;;6.50;5.80;;;-2.50;99.90;;;;;;5091926;28;20210;-71
2021/01/31 03:47:14;;;;;;;7.43;5.57;;;-2.50;99.90;;;;;;5100001;28;20212;-71
2021/01/31 03:49:49;;;;;;;7.83;5.97;;;-2.60;99.90;;;;;;5091282;28;20199;-70
2021/01/31 03:52:16;;;;;;;6.90;5.43;;;-2.70;99.90;;;;;;5090197;28;20221;-71
2021/01/31 03:54:43;;;;;;;7.93;6.00;;;-2.70;99.90;;;;;;5099693;28;20213;-70
2021/01/31 03:57:14;;;;;;;7.10;5.97;;;-2.70;99.90;;;;;;5091037;28;20265;-71
2021/01/31 03:59:45;;;;;;;9.27;6.13;;;-2.70;99.90;;;;;;5090824;28;20243;-71
2021/01/31 04:02:13;;;;;;;6.27;5.40;;;-2.80;99.90;;;;;;5091139;28;20194;-70
2021/01/31 04:04:42;;;;;;;6.53;5.50;;;-2.90;99.90;;;;;;5090312;28;20736;-70
2021/01/31 04:07:10;;;;;;;6.10;5.43;;;-2.90;99.90;;;;;;5090796;28;20269;-70
2021/01/31 04:09:39;;;;;;;6.63;5.97;;;-2.90;99.90;;;;;;5090980;28;20232;-70
2021/01/31 04:12:08;;;;;;;6.23;5.00;;;-2.80;99.90;;;;;;5090867;28;20229;-70
2021/01/31 04:14:39;;;;;;;6.20;5.60;;;-2.70;99.90;;;;;;5090784;28;20795;-70
2021/01/31 04:17:06;;;;;;;6.17;5.47;;;-2.80;99.90;;;;;;5100265;28;20195;-71
2021/01/31 04:19:32;;;;;;;6.40;5.80;;;-2.80;99.90;;;;;;5090466;28;20214;-71
2021/01/31 04:21:58;;;;;;;6.17;5.30;;;-2.80;99.90;;;;;;5090538;28;20218;-71
2021/01/31 04:24:26;;;;;;;6.53;5.60;;;-2.80;99.90;;;;;;5090464;28;20207;-71
2021/01/31 04:26:52;;;;;;;6.00;5.40;;;-2.90;99.90;;;;;;5090459;28;20212;-71
2021/01/31 04:29:18;;;;;;;6.80;5.67;;;-2.90;99.90;;;;;;5090484;28;20267;-70
2021/01/31 04:31:44;;;;;;;6.73;6.03;;;-2.90;99.90;;;;;;5090872;28;20207;-71
2021/01/31 04:34:11;;;;;;;6.47;5.67;;;-2.80;99.90;;;;;;5090403;28;20207;-71
2021/01/31 04:36:37;;;;;;;6.97;5.70;;;-2.80;99.90;;;;;;5090456;28;20206;-71
2021/01/31 04:39:04;;;;;;;7.00;6.07;;;-2.80;99.90;;;;;;5090520;28;20207;-71
2021/01/31 04:41:34;;;;;;;7.13;6.13;;;-2.90;99.90;;;;;;5090415;28;20234;-71
2021/01/31 04:44:01;;;;;;;7.20;6.47;;;-2.90;99.90;;;;;;5090886;28;20217;-71
2021/01/31 04:46:39;;;;;;;7.73;6.37;;;-2.90;99.90;;;;;;5090381;28;20212;-71
2021/01/31 04:49:25;;;;;;;8.70;6.27;;;-2.90;99.90;;;;;;5090235;28;20561;-71
2021/01/31 04:52:06;;;;;;;8.60;6.10;;;-3.00;99.90;;;;;;5088419;28;20218;-71
2021/01/31 04:54:47;;;;;;;7.83;6.20;;;-3.00;99.90;;;;;;5090469;28;20195;-71
2021/01/31 04:57:20;;;;;;;9.03;6.07;;;-3.00;99.90;;;;;;5090353;28;20747;-71
2021/01/31 04:59:49;;;;;;;7.57;6.30;;;-3.00;99.90;;;;;;5090051;28;20235;-71
2021/01/31 05:02:21;;;;;;;11.63;6.27;;;-3.10;99.90;;;;;;5089971;28;20723;-71
2021/01/31 05:04:51;;;;;;;7.73;6.00;;;-3.00;99.90;;;;;;5090402;28;20188;-71
2021/01/31 05:07:19;;;;;;;8.27;6.27;;;-3.10;99.90;;;;;;5089853;28;20711;-71
2021/01/31 05:09:45;;;;;;;6.43;5.83;;;-3.10;99.90;;;;;;5090146;28;20217;-71
2021/01/31 05:12:19;;;;;;;7.13;6.33;;;-3.30;99.90;;;;;;5090161;28;20203;-71
2021/01/31 05:15:03;;;;;;;7.83;6.40;;;-3.30;99.90;;;;;;5089920;28;20668;-71
2021/01/31 05:17:30;;;;;;;8.07;6.60;;;-3.30;99.90;;;;;;5089665;28;20641;-71
2021/01/31 05:19:58;;;;;;;9.50;6.97;;;-3.30;99.90;;;;;;5089987;28;20213;-71
2021/01/31 05:22:33;;;;;;;9.77;6.73;;;-3.20;99.90;;;;;;5089701;28;20279;-71
2021/01/31 05:25:00;;;;;;;8.67;6.70;;;-3.10;99.90;;;;;;5089770;28;20195;-71
2021/01/31 05:27:31;;;;;;;8.23;6.53;;;-3.10;99.90;;;;;;5089447;28;20562;-71
2021/01/31 05:29:57;;;;;;;8.47;6.50;;;-3.10;99.90;;;;;;5089750;28;20195;-71
2021/01/31 05:32:24;;;;;;;8.33;6.20;;;-3.20;99.90;;;;;;5089489;28;20252;-71
2021/01/31 05:34:52;;;;;;;8.03;6.40;;;-3.20;99.90;;;;;;5089260;28;20681;-70
2021/01/31 05:37:21;;;;;;;8.57;5.90;;;-3.20;99.90;;;;;;5089255;28;20207;-70
2021/01/31 05:39:48;;;;;;;5.90;5.30;;;-3.30;99.90;;;;;;5089270;28;20975;-71
2021/01/31 05:42:17;;;;;;;6.53;5.60;;;-3.20;99.90;;;;;;5089145;28;20238;-71
2021/01/31 05:44:56;;;;;;;7.20;5.53;;;-3.30;99.90;;;;;;5089437;28;20572;-71
2021/01/31 05:47:25;;;;;;;6.57;5.50;;;-3.40;99.90;;;;;;5089415;28;20224;-71
2021/01/31 05:49:53;;;;;;;7.20;6.03;;;-3.40;99.90;;;;;;5089136;28;20199;-71
2021/01/31 05:52:33;;;;;;;6.07;5.47;;;-3.50;99.90;;;;;;5089237;28;20213;-71
2021/01/31 05:55:01;;;;;;;5.33;4.83;;;-3.50;99.90;;;;;;5089285;28;20206;-71
2021/01/31 05:57:29;;;;;;;6.20;5.20;;;-3.50;99.90;;;;;;5088544;28;20343;-71
2021/01/31 05:59:58;;;;;;;6.50;5.43;;;-3.60;99.90;;;;;;5088541;28;20218;-71
2021/01/31 06:02:26;;;;;;;6.60;5.87;;;-3.70;99.90;;;;;;5089096;28;20245;-71
2021/01/31 06:05:09;;;;;;;5.67;5.07;;;-3.70;99.90;;;;;;5088982;28;20206;-71
2021/01/31 06:07:38;;;;;;;6.67;6.07;;;-3.70;99.90;;;;;;5088884;28;20209;-71
2021/01/31 06:10:10;;;;;;;6.00;5.40;;;-3.80;99.90;;;;;;5088746;28;20203;-71
2021/01/31 06:12:36;;;;;;;6.90;5.80;;;-3.80;99.90;;;;;;5089002;28;20203;-71
2021/01/31 06:15:08;;;;;;;9.13;6.30;;;-3.70;99.90;;;;;;5088857;28;20207;-72
2021/01/31 06:17:35;;;;;;;6.87;5.80;;;-3.70;99.90;;;;;;5089076;28;20282;-71
2021/01/31 06:20:07;;;;;;;6.07;5.33;;;-3.80;99.90;;;;;;5088623;28;20206;-71
2021/01/31 06:22:41;;;;;;;7.87;6.00;;;-3.70;99.90;;;;;;5088965;28;20227;-71
2021/01/31 06:25:13;;;;;;;8.53;6.30;;;-3.70;99.90;;;;;;5088937;28;20191;-71
2021/01/31 06:27:39;;;;;;;6.53;5.77;;;-3.70;99.90;;;;;;5088336;28;20200;-70
2021/01/31 06:30:28;;;;;;;6.73;5.73;;;-3.70;99.90;;;;;;5088450;28;20207;-70
2021/01/31 06:32:57;;;;;;;6.30;5.70;;;-3.70;99.90;;;;;;5088490;28;20203;-70
2021/01/31 06:35:26;;;;;;;8.60;6.53;;;-3.70;99.90;;;;;;5088871;28;20206;-70
2021/01/31 06:38:05;;;;;;;6.23;5.60;;;-3.70;99.90;;;;;;5088642;28;20243;-70
2021/01/31 06:40:38;;;;;;;7.80;6.37;;;-3.80;99.90;;;;;;5088335;28;20199;-70
2021/01/31 06:43:14;;;;;;;7.40;6.20;;;-3.80;99.90;;;;;;5088465;28;20223;-70
2021/01/31 06:45:46;;;;;;;6.87;6.00;;;-3.80;99.90;;;;;;5088314;28;20191;-70
2021/01/31 06:48:40;;;;;;;7.00;6.23;;;-3.80;99.90;;;;;;5088497;28;20203;-70
2021/01/31 06:51:20;;;;;;;8.03;5.87;;;-3.80;99.90;;;;;;5088503;28;20191;-72
2021/01/31 06:54:10;;;;;;;6.27;5.67;;;-3.80;99.90;;;;;;5088377;28;20197;-71
2021/01/31 06:57:06;;;;;;;8.70;7.17;;;-3.80;99.90;;;;;;5087741;28;20202;-70
2021/01/31 06:59:47;;;;;;;8.90;6.53;;;-3.80;99.90;;;;;;5096029;28;20230;-70
2021/01/31 07:02:45;;;;;;;8.67;6.57;;;-3.80;99.90;;;;;;5096877;28;20225;-71
2021/01/31 07:05:31;;;;;;;7.97;6.37;;;-3.80;99.90;;;;;;5090006;28;20203;-71
2021/01/31 07:08:17;;;;;;;7.63;6.07;;;-3.90;99.90;;;;;;5097362;28;20520;-71
2021/01/31 07:11:17;;;;;;;8.30;6.50;;;-3.80;99.90;;;;;;5089243;28;20259;-71
2021/01/31 07:13:58;;;;;;;7.73;6.23;;;-3.90;99.90;;;;;;5091952;28;20195;-71
2021/01/31 07:16:36;;;;;;;8.43;6.13;;;-3.80;99.90;;;;;;5101901;28;20206;-71
2021/01/31 07:19:07;;;;;;;8.60;6.30;;;-3.70;99.90;;;;;;5102998;28;20194;-70
2021/01/31 07:21:39;;;;;;;8.13;6.20;;;-3.70;99.90;;;;;;5105740;28;20210;-71
2021/01/31 07:24:11;;;;;;;8.67;6.20;;;-3.60;99.90;;;;;;5102323;28;20187;-71
2021/01/31 07:26:43;;;;;;;8.77;6.03;;;-3.60;99.90;;;;;;5100896;28;20563;-71
2021/01/31 07:29:15;;;;;;;8.53;6.47;;;-3.70;99.90;;;;;;5100779;28;20187;-71
2021/01/31 07:31:47;;;;;;;8.00;6.37;;;-3.70;99.90;;;;;;5091467;28;20187;-71
2021/01/31 07:34:23;;;;;;;6.77;5.90;;;-3.60;99.90;;;;;;5091630;28;20195;-71
2021/01/31 07:37:09;;;;;;;8.47;6.20;;;-3.60;99.90;;;;;;5091596;28;20213;-70
2021/01/31 07:40:04;;;;;;;7.20;5.53;;;-3.50;99.90;;;;;;5091109;28;20235;-71
2021/01/31 07:42:34;;;;;;;6.23;5.63;;;-3.60;99.90;;;;;;5070161;28;20223;-71
2021/01/31 07:45:04;;;;;;;7.27;5.80;;;-3.60;99.90;;;;;;5091417;28;20212;-70
2021/01/31 07:47:30;;;;;;;6.83;5.77;;;-3.50;99.90;;;;;;5091225;28;20195;-70
2021/01/31 07:50:36;;;;;;;7.13;6.17;;;-3.40;99.90;;;;;;5102470;28;20999;-70
2021/01/31 07:53:04;;;;;;;7.90;6.10;;;-3.40;99.90;;;;;;5096072;28;20703;-70
2021/01/31 07:55:40;;;;;;;8.13;5.93;;;-3.30;99.90;;;;;;5100043;28;20203;-72
2021/01/31 07:58:38;;;;;;;8.33;6.20;;;-3.30;99.90;;;;;;5111652;28;20246;-71
2021/01/31 08:01:12;;;;;;;7.13;5.33;;;-3.30;99.90;;;;;;5106053;28;20246;-72
2021/01/31 08:03:39;;;;;;;5.43;4.90;;;-3.20;99.90;;;;;;5106810;28;20214;-72
2021/01/31 08:06:13;;;;;;;5.97;5.00;;;-3.10;99.90;;;;;;5111339;28;20206;-73
2021/01/31 08:08:43;;;;;;;7.13;6.07;;;-2.80;99.90;;;;;;5111510;28;20202;-72
2021/01/31 08:11:12;;;;;;;6.60;5.90;;;-2.50;99.90;;;;;;5111579;28;20256;-72
2021/01/31 08:13:42;;;;;;;6.73;6.03;;;-2.30;99.90;;;;;;5107224;28;20448;-72
2021/01/31 08:16:40;;;;;;;5.43;4.93;;;-2.10;99.90;;;;;;5108014;28;20212;-73
2021/01/31 08:19:11;;;;;;;5.27;4.77;;;-2.00;99.90;;;;;;5098697;28;20572;-73
2021/01/31 08:21:56;;;;;;;5.93;5.23;;;-1.80;99.90;;;;;;5095392;28;20220;-73
2021/01/31 08:24:57;;;;;;;5.50;5.00;;;-1.60;99.90;;;;;;5094467;28;20203;-73
2021/01/31 08:27:59;;;;;;;5.23;4.73;;;-1.50;99.90;;;;;;5092453;28;20229;-73
2021/01/31 08:30:31;;;;;;;4.87;4.37;;;-1.60;99.90;;;;;;5068498;28;20217;-72
2021/01/31 08:33:23;;;;;;;4.70;4.20;;;-1.60;99.90;;;;;;5087281;28;20577;-72
2021/01/31 08:36:11;;;;;;;4.60;4.20;;;-1.70;99.90;;;;;;5071882;28;20251;-73
2021/01/31 08:38:42;;;;;;;5.87;4.93;;;-1.60;99.90;;;;;;5082441;28;20576;-73
2021/01/31 08:41:41;;;;;;;5.10;4.67;;;-1.50;99.90;;;;;;5086815;28;20198;-73
2021/01/31 08:44:52;;;;;;;4.83;4.40;;;-1.40;99.90;;;;;;5087171;28;20197;-73
2021/01/31 08:47:18;;;;;;;4.70;4.30;;;-1.40;99.90;;;;;;5042168;28;20511;-73
2021/01/31 08:49:54;;;;;;;5.20;4.70;;;-1.30;99.90;;;;;;5043395;28;20212;-73
2021/01/31 08:52:21;;;;;;;5.27;4.77;;;-1.30;99.90;;;;;;5080262;28;20260;-72
2021/01/31 08:54:58;;;;;;;5.90;5.30;;;-1.30;99.90;;;;;;5095750;28;20196;-75
2021/01/31 08:57:26;;;;;;;8.97;8.17;;;-1.30;99.90;;;;;;5096844;28;20229;-74
2021/01/31 08:59:53;;;;;;;5.90;4.73;;;-1.20;99.90;;;;;;5094499;28;20218;-72
2021/01/31 09:02:24;;;;;;;5.30;4.80;;;-1.20;99.90;;;;;;5100088;28;20746;-72
2021/01/31 09:04:53;;;;;;;5.17;4.67;;;-1.20;99.90;;;;;;5106768;28;20199;-72
2021/01/31 09:07:23;;;;;;;4.87;4.47;;;-1.20;99.90;;;;;;5106693;28;20220;-72
2021/01/31 09:09:56;;;;;;;5.90;4.93;;;-1.20;99.90;;;;;;5106654;28;20725;-72
2021/01/31 09:12:25;;;;;;;5.70;5.10;;;-1.10;99.90;;;;;;5103929;28;20209;-72
2021/01/31 09:14:53;;;;;;;5.37;4.80;;;-1.10;99.90;;;;;;5106803;28;20237;-72
2021/01/31 09:17:25;;;;;;;5.47;4.97;;;-0.90;99.90;;;;;;5106587;28;20253;-72
2021/01/31 09:20:14;;;;;;;6.17;5.47;;;-0.80;99.90;;;;;;5106267;28;20220;-73
2021/01/31 09:22:42;;;;;;;5.57;5.07;;;-0.70;99.90;;;;;;5106239;28;20225;-72
2021/01/31 09:25:11;;;;;;;5.13;4.63;;;-0.60;99.90;;;;;;5106306;28;20286;-72
2021/01/31 09:27:46;;;;;;;6.33;5.73;;;-0.60;99.90;;;;;;5106374;28;20205;-72
2021/01/31 09:30:14;;;;;;;6.00;5.20;;;-0.60;99.90;;;;;;5106216;28;20197;-72
2021/01/31 09:32:43;;;;;;;5.80;5.20;;;-0.70;99.90;;;;;;5105333;28;20257;-73
2021/01/31 09:35:17;;;;;;;6.00;5.00;;;-0.80;99.90;;;;;;5105940;28;20257;-72
2021/01/31 09:37:43;;;;;;;5.40;4.73;;;-0.70;99.90;;;;;;5099361;28;20202;-72
2021/01/31 09:40:11;;;;;;;5.80;5.20;;;-0.50;99.90;;;;;;5103005;28;20271;-73
2021/01/31 09:42:40;;;;;;;5.10;4.60;;;-0.50;99.90;;;;;;5106490;28;20241;-72
2021/01/31 09:45:25;;;;;;;5.57;4.80;;;-0.30;99.90;;;;;;5106407;28;20205;-73
2021/01/31 09:47:53;;;;;;;5.50;5.00;;;-0.30;99.90;;;;;;5106100;27;20194;-71
2021/01/31 09:50:19;;;;;;;4.97;4.47;;;-0.10;99.90;;;;;;5105741;28;20239;-72
2021/01/31 09:52:47;;;;;;;5.10;4.70;;;0.10;99.90;;;;;;5105827;28;20202;-73
2021/01/31 09:55:38;;;;;;;5.60;5.20;;;0.20;99.90;;;;;;5105584;28;20206;-73
2021/01/31 09:58:17;;;;;;;5.43;4.80;;;0.50;99.90;;;;;;5103279;28;20233;-73
2021/01/31 10:00:44;;;;;;;5.60;5.10;;;0.30;99.90;;;;;;5106269;28;20194;-73
2021/01/31 10:03:21;;;;;;;6.53;5.97;;;0.40;99.90;;;;;;5097222;27;20589;-73
2021/01/31 10:05:47;;;;;;;5.97;5.47;;;0.60;99.90;;;;;;5117569;27;20318;-73
2021/01/31 10:08:18;;;;;;;5.40;4.90;;;0.70;99.90;;;;;;5114365;27;20304;-73
2021/01/31 10:10:45;;;;;;;5.20;4.73;;;0.60;99.90;;;;;;5117903;27;20187;-73
2021/01/31 10:13:38;;;;;;;5.27;4.77;;;0.70;99.90;;;;;;5119520;27;20222;-73
2021/01/31 10:16:17;;;;;;;5.00;4.50;;;0.70;99.90;;;;;;5113559;27;20197;-73
2021/01/31 10:18:44;;;;;;;6.03;5.43;;;0.80;99.90;;;;;;5116125;27;20206;-73
2021/01/31 10:21:23;;;;;;;4.97;4.47;;;0.80;99.90;;;;;;5121982;27;20300;-73
2021/01/31 10:23:59;;;;;;;5.10;4.70;;;0.80;99.90;;;;;;5119408;27;20204;-73
2021/01/31 10:26:25;;;;;;;5.57;5.07;;;0.80;99.90;;;;;;5115905;27;20197;-73
2021/01/31 10:28:55;;;;;;;4.87;4.47;;;0.70;99.90;;;;;;5119586;27;20212;-73
2021/01/31 10:31:28;;;;;;;5.07;4.67;;;0.80;99.90;;;;;;5117505;27;20202;-73
2021/01/31 10:33:55;;;;;;;4.83;4.43;;;0.90;99.90;;;;;;5116337;27;20190;-73
2021/01/31 10:36:36;;;;;;;5.03;4.53;;;1.00;99.90;;;;;;5119029;27;20258;-73
2021/01/31 10:39:25;;;;;;;5.30;4.90;;;1.20;99.90;;;;;;5115580;27;20186;-73
2021/01/31 10:41:53;;;;;;;5.87;4.83;;;1.20;99.90;;;;;;5118297;27;20221;-73
2021/01/31 10:44:25;;;;;;;4.90;4.43;;;1.20;99.90;;;;;;5117148;27;20731;-73
2021/01/31 10:46:51;;;;;;;5.27;4.80;;;1.40;99.90;;;;;;5116378;27;20223;-73
2021/01/31 10:49:18;;;;;;;5.40;5.00;;;1.40;99.90;;;;;;5118477;27;20276;-73
2021/01/31 10:51:45;;;;;;;4.53;4.23;;;1.40;99.90;;;;;;5116192;27;20198;-73
2021/01/31 10:54:12;;;;;;;5.13;4.70;;;1.60;99.90;;;;;;5108337;27;20193;-73
2021/01/31 10:56:39;;;;;;;5.20;4.80;;;1.60;99.90;;;;;;5112713;27;20570;-73
2021/01/31 10:59:05;;;;;;;5.57;5.07;;;1.80;99.90;;;;;;5109979;27;20233;-73
2021/01/31 11:01:32;;;;;;;5.10;4.67;;;2.00;99.90;;;;;;5116524;27;20204;-73
2021/01/31 11:03:58;;;;;;;5.30;4.90;;;2.10;99.90;;;;;;5112804;27;20200;-73
2021/01/31 11:06:27;;;;;;;5.30;4.83;;;2.10;99.90;;;;;;5108164;28;20202;-73
2021/01/31 11:08:54;;;;;;;5.43;4.70;;;2.30;99.90;;;;;;5106095;28;20196;-73
2021/01/31 11:11:21;;;;;;;4.97;4.47;;;2.40;99.90;;;;;;5105364;28;20530;-73
2021/01/31 11:13:48;;;;;;;5.07;4.67;;;2.40;99.90;;;;;;5104564;28;20681;-73
2021/01/31 11:16:14;;;;;;;5.00;4.60;;;2.50;99.90;;;;;;5116713;27;20209;-73
2021/01/31 11:18:41;;;;;;;5.00;4.60;;;2.50;99.90;;;;;;5118164;28;20193;-73
2021/01/31 11:21:08;;;;;;;5.60;5.07;;;2.50;99.90;;;;;;5113547;28;20198;-73
2021/01/31 11:23:34;;;;;;;7.23;6.67;;;2.50;99.90;;;;;;5108890;28;20229;-75
2021/01/31 11:26:00;;;;;;;10.93;10.03;;;2.70;99.90;;;;;;5111953;28;20212;-75
2021/01/31 11:28:26;;;;;;;5.03;4.60;;;2.90;99.90;;;;;;5114541;27;20205;-73
2021/01/31 11:30:53;;;;;;;5.20;4.80;;;3.00;99.90;;;;;;5119196;27;20204;-73
2021/01/31 11:33:19;;;;;;;5.10;4.70;;;3.10;99.90;;;;;;5121886;27;20213;-73
2021/01/31 11:35:46;;;;;;;5.20;4.80;;;3.20;99.90;;;;;;5127938;27;20209;-73
2021/01/31 11:38:12;;;;;;;4.73;4.43;;;3.20;99.90;;;;;;5128649;27;20209;-73
2021/01/31 11:40:39;;;;;;;5.00;4.60;;;3.30;99.90;;;;;;5128167;27;20216;-73
2021/01/31 11:43:05;;;;;;;3.93;3.63;;;3.30;99.90;;;;;;5128411;27;20248;-73
2021/01/31 11:45:31;;;;;;;4.87;4.47;;;3.00;99.90;;;;;;5128260;27;20205;-73
2021/01/31 11:47:57;;;;;;;4.87;4.27;;;3.10;99.90;;;;;;5128580;27;20201;-72
2021/01/31 11:50:24;;;;;;;4.07;3.70;;;3.10;99.90;;;;;;5128331;27;20571;-73
2021/01/31 11:52:51;;;;;;;4.73;4.40;;;3.10;99.90;;;;;;5128419;27;20213;-73
2021/01/31 11:55:18;;;;;;;4.80;4.40;;;3.40;99.90;;;;;;5128503;27;20209;-73
2021/01/31 11:57:44;;;;;;;5.00;4.50;;;3.50;99.90;;;;;;5123588;27;20283;-73
2021/01/31 12:00:14;;;;;;;4.83;4.43;;;3.60;99.90;;;;;;5109794;27;20201;-73
2021/01/31 12:02:40;;;;;;;5.20;4.70;;;3.60;99.90;;;;;;5111325;28;20688;-73
2021/01/31 12:05:09;;;;;;;4.83;4.43;;;3.60;99.90;;;;;;5111192;28;20683;-73
2021/01/31 12:07:36;;;;;;;5.07;4.67;;;3.60;99.90;;;;;;5111197;28;20206;-73
2021/01/31 12:10:04;;;;;;;4.70;4.30;;;3.80;99.90;;;;;;5111525;28;20198;-73
2021/01/31 12:12:30;;;;;;;4.50;4.10;;;3.90;99.90;;;;;;5111124;28;20738;-73
2021/01/31 12:14:56;;;;;;;4.90;4.50;;;4.00;99.90;;;;;;5105398;28;20594;-73
2021/01/31 12:17:23;;;;;;;4.77;4.40;;;4.10;99.90;;;;;;5102578;28;20195;-71
2021/01/31 12:19:49;;;;;;;5.30;4.90;;;4.20;99.90;;;;;;5100398;28;20338;-71
2021/01/31 12:22:15;;;;;;;4.63;4.30;;;4.20;99.90;;;;;;5101361;28;20226;-71
2021/01/31 12:24:43;;;;;;;5.00;4.60;;;4.30;99.90;;;;;;5090515;28;20248;-71
2021/01/31 12:27:10;;;;;;;5.73;5.23;;;4.30;99.90;;;;;;5090648;28;20227;-71
2021/01/31 12:29:36;;;;;;;5.30;4.90;;;4.50;99.90;;;;;;5090335;28;20203;-70
2021/01/31 12:32:03;;;;;;;5.97;5.47;;;4.50;99.90;;;;;;5090555;28;20203;-71
2021/01/31 12:34:29;;;;;;;5.67;5.17;;;4.60;99.90;;;;;;5090218;28;20203;-71
2021/01/31 12:36:55;;;;;;;5.53;5.13;;;4.70;99.90;;;;;;5090252;28;20224;-71
2021/01/31 12:39:21;;;;;;;5.80;5.30;;;4.80;99.90;;;;;;5096117;28;20237;-71
2021/01/31 12:41:48;;;;;;;5.83;5.33;;;4.80;99.90;;;;;;5100254;28;20210;-71
2021/01/31 12:44:15;;;;;;;5.97;5.47;;;4.80;99.90;;;;;;5099693;28;20260;-71
2021/01/31 12:46:41;;;;;;;6.10;5.60;;;4.70;99.90;;;;;;5090095;28;20794;-71
2021/01/31 12:49:08;;;;;;;5.80;5.30;;;4.70;99.90;;;;;;5090519;28;20252;-71
2021/01/31 12:51:34;;;;;;;5.90;5.40;;;4.80;99.90;;;;;;5090127;28;20256;-71
2021/01/31 12:54:00;;;;;;;5.97;5.47;;;4.90;99.90;;;;;;5089992;28;20668;-71
2021/01/31 12:56:26;;;;;;;5.77;5.27;;;5.00;99.90;;;;;;5089976;28;20213;-72
2021/01/31 12:58:52;;;;;;;6.30;5.80;;;5.10;99.90;;;;;;5089946;28;20243;-72
2021/01/31 13:01:20;;;;;;;6.63;6.03;;;5.20;99.90;;;;;;5090050;28;20683;-71
2021/01/31 13:03:47;;;;;;;6.17;5.67;;;5.10;99.90;;;;;;5089871;28;20553;-71
2021/01/31 13:06:13;;;;;;;6.77;6.10;;;5.20;99.90;;;;;;5097557;28;20259;-71
2021/01/31 13:08:39;;;;;;;6.47;5.87;;;5.30;99.90;;;;;;5099978;28;20229;-71
2021/01/31 13:11:05;;;;;;;6.73;6.20;;;5.30;99.90;;;;;;5096380;28;20279;-71